createdAt,value
2017-12-31T00:00:51.149Z,996.73
2017-12-31T00:01:51.215Z,996.73
2017-12-31T00:02:51.206Z,996.69
2017-12-31T00:03:51.237Z,996.76
2017-12-31T00:04:51.257Z,996.74
2017-12-31T00:05:51.578Z,996.7
2017-12-31T00:06:51.627Z,996.76
2017-12-31T00:07:51.888Z,996.71
2017-12-31T00:08:51.914Z,996.76
2017-12-31T00:09:52.355Z,996.76
2017-12-31T00:10:52.406Z,996.74
2017-12-31T00:11:52.849Z,996.78
2017-12-31T00:12:52.886Z,996.86
2017-12-31T00:13:53.039Z,996.86
2017-12-31T00:14:53.054Z,996.91
2017-12-31T00:15:53.079Z,996.91
2017-12-31T00:16:53.110Z,996.92
2017-12-31T00:17:53.136Z,997
2017-12-31T00:18:53.388Z,997.08
2017-12-31T00:19:53.482Z,997.09
2017-12-31T00:20:53.423Z,997.12
2017-12-31T00:21:53.422Z,997.18
2017-12-31T00:22:53.470Z,997.17
2017-12-31T00:23:53.539Z,997.27
2017-12-31T00:24:53.544Z,997.32
2017-12-31T00:25:53.718Z,997.28
2017-12-31T00:26:53.612Z,997.18
2017-12-31T00:27:53.698Z,997.23
2017-12-31T00:28:53.884Z,997.27
2017-12-31T00:29:54.014Z,997.38
2017-12-31T00:30:53.951Z,997.27
2017-12-31T00:31:53.979Z,997.37
2017-12-31T00:32:54.174Z,997.35
2017-12-31T00:33:54.203Z,997.37
2017-12-31T00:34:54.240Z,997.41
2017-12-31T00:35:54.267Z,997.47
2017-12-31T00:36:54.279Z,997.49
2017-12-31T00:37:54.981Z,997.5
2017-12-31T00:38:55.135Z,997.48
2017-12-31T00:39:55.423Z,997.58
2017-12-31T00:40:55.596Z,997.51
2017-12-31T00:41:55.622Z,997.46
2017-12-31T00:42:55.818Z,997.55
2017-12-31T00:43:56.285Z,997.47
2017-12-31T00:44:56.406Z,997.5
2017-12-31T00:45:56.712Z,997.42
2017-12-31T00:46:56.740Z,997.49
2017-12-31T00:47:56.972Z,997.61
2017-12-31T00:48:56.980Z,997.78
2017-12-31T00:49:56.994Z,997.77
2017-12-31T00:50:57.417Z,997.78
2017-12-31T00:51:57.832Z,997.77
2017-12-31T00:52:58.340Z,997.87
2017-12-31T00:53:58.331Z,997.93
2017-12-31T00:54:58.336Z,997.99
2017-12-31T00:55:58.785Z,998.07
2017-12-31T00:56:59.002Z,998.06
2017-12-31T00:57:58.825Z,998.04
2017-12-31T00:58:59.864Z,998.03
2017-12-31T00:59:59.726Z,998.1
2017-12-31T01:00:59.753Z,998.08
2017-12-31T01:01:59.948Z,998.1
2017-12-31T01:02:59.882Z,998.22
2017-12-31T01:04:00.315Z,998.26
2017-12-31T01:05:00.320Z,998.19
2017-12-31T01:06:00.350Z,998.33
2017-12-31T01:07:00.392Z,998.33
2017-12-31T01:08:00.414Z,998.36
2017-12-31T01:09:00.433Z,998.43
2017-12-31T01:10:00.584Z,998.37
2017-12-31T01:11:00.614Z,998.31
2017-12-31T01:12:00.633Z,998.41
2017-12-31T01:13:00.723Z,998.37
2017-12-31T01:14:00.762Z,998.43
2017-12-31T01:15:00.925Z,998.51
2017-12-31T01:16:01.024Z,998.54
2017-12-31T01:17:01.373Z,998.56
2017-12-31T01:18:01.791Z,998.57
2017-12-31T01:19:02.207Z,998.57
2017-12-31T01:20:02.666Z,998.59
2017-12-31T01:21:02.691Z,998.6
2017-12-31T01:22:02.701Z,998.61
2017-12-31T01:23:02.845Z,998.61
2017-12-31T01:24:02.886Z,998.64
2017-12-31T01:25:02.911Z,998.59
2017-12-31T01:26:03.128Z,998.63
2017-12-31T01:27:03.143Z,998.63
2017-12-31T01:28:03.263Z,998.74
2017-12-31T01:29:03.229Z,998.72
2017-12-31T01:30:03.273Z,998.61
2017-12-31T01:31:03.293Z,998.64
2017-12-31T01:32:03.370Z,998.62
2017-12-31T01:33:03.328Z,998.66
2017-12-31T01:34:03.497Z,998.63
2017-12-31T01:35:03.420Z,998.6
2017-12-31T01:36:03.458Z,998.57
2017-12-31T01:37:03.472Z,998.62
2017-12-31T01:38:03.470Z,998.52
2017-12-31T01:39:03.721Z,998.55
2017-12-31T01:40:03.726Z,998.61
2017-12-31T01:41:03.770Z,998.61
2017-12-31T01:42:03.753Z,998.54
2017-12-31T01:43:03.802Z,998.65
2017-12-31T01:44:04.233Z,998.65
2017-12-31T01:45:04.192Z,998.74
2017-12-31T01:46:11.382Z,998.71
2017-12-31T01:47:11.726Z,998.73
2017-12-31T01:48:11.359Z,998.73
2017-12-31T01:49:11.401Z,998.73
2017-12-31T01:50:11.418Z,998.72
2017-12-31T01:51:12.009Z,998.79
2017-12-31T01:52:12.015Z,998.81
2017-12-31T01:53:11.988Z,998.85
2017-12-31T01:54:11.995Z,998.89
2017-12-31T01:55:12.030Z,998.87
2017-12-31T01:56:12.430Z,998.91
2017-12-31T01:57:12.572Z,998.91
2017-12-31T01:58:12.604Z,998.9
2017-12-31T01:59:12.628Z,998.95
2017-12-31T02:00:12.833Z,998.93
2017-12-31T02:01:12.914Z,998.97
2017-12-31T02:02:12.910Z,999.02
2017-12-31T02:03:12.948Z,999.06
2017-12-31T02:04:12.963Z,999.13
2017-12-31T02:05:13.299Z,999.07
2017-12-31T02:06:13.958Z,999.05
2017-12-31T02:07:13.793Z,999.18
2017-12-31T02:08:13.836Z,999.2
2017-12-31T02:09:14.023Z,999.24
2017-12-31T02:10:14.176Z,999.18
2017-12-31T02:11:14.640Z,999.19
2017-12-31T02:12:14.658Z,999.15
2017-12-31T02:13:14.700Z,999.19
2017-12-31T02:14:14.720Z,999.25
2017-12-31T02:15:14.744Z,999.36
2017-12-31T02:16:14.843Z,999.32
2017-12-31T02:17:14.806Z,999.39
2017-12-31T02:18:14.924Z,999.42
2017-12-31T02:19:15.629Z,999.42
2017-12-31T02:20:15.675Z,999.44
2017-12-31T02:21:15.433Z,999.5
2017-12-31T02:22:15.615Z,999.57
2017-12-31T02:23:15.702Z,999.6
2017-12-31T02:24:15.512Z,999.58
2017-12-31T02:25:16.026Z,999.61
2017-12-31T02:26:16.106Z,999.57
2017-12-31T02:27:16.137Z,999.57
2017-12-31T02:28:16.967Z,999.57
2017-12-31T02:29:16.866Z,999.61
2017-12-31T02:30:17.052Z,999.6
2017-12-31T02:31:17.095Z,999.64
2017-12-31T02:32:17.155Z,999.66
2017-12-31T02:33:17.237Z,999.7
2017-12-31T02:34:17.162Z,999.77
2017-12-31T02:36:22.513Z,999.76
2017-12-31T02:37:22.907Z,999.8
2017-12-31T02:38:22.914Z,999.81
2017-12-31T02:39:22.935Z,999.79
2017-12-31T02:40:23.108Z,999.83
2017-12-31T02:41:23.102Z,999.83
2017-12-31T02:42:23.485Z,999.84
2017-12-31T02:43:23.514Z,999.93
2017-12-31T02:44:23.671Z,999.99
2017-12-31T02:45:23.701Z,999.92
2017-12-31T02:46:23.708Z,999.9
2017-12-31T02:47:23.817Z,999.88
2017-12-31T02:48:24.242Z,999.82
2017-12-31T02:49:24.354Z,999.89
2017-12-31T02:50:24.657Z,999.85
2017-12-31T02:51:24.754Z,999.89
2017-12-31T02:52:24.782Z,999.82
2017-12-31T02:53:25.085Z,999.84
2017-12-31T02:54:25.517Z,999.83
2017-12-31T02:55:25.649Z,999.9
2017-12-31T02:56:25.658Z,999.87
2017-12-31T02:57:25.685Z,999.87
2017-12-31T02:58:26.068Z,999.9
2017-12-31T02:59:26.206Z,999.97
2017-12-31T03:00:26.466Z,999.94
2017-12-31T03:01:26.483Z,999.97
2017-12-31T03:02:26.503Z,999.99
2017-12-31T03:03:26.523Z,1000.08
2017-12-31T03:04:26.609Z,1000.07
2017-12-31T03:05:26.654Z,1000.13
2017-12-31T03:06:27.046Z,1000.15
2017-12-31T03:07:27.409Z,1000.07
2017-12-31T03:08:28.356Z,1000.13
2017-12-31T03:09:27.812Z,1000.11
2017-12-31T03:10:28.220Z,1000.12
2017-12-31T03:11:28.246Z,1000.12
2017-12-31T03:12:28.389Z,1000.08
2017-12-31T03:13:28.417Z,1000.1
2017-12-31T03:14:28.767Z,1000.14
2017-12-31T03:15:28.817Z,1000.11
2017-12-31T03:16:28.930Z,1000.09
2017-12-31T03:17:29.256Z,1000.11
2017-12-31T03:18:29.263Z,999.99
2017-12-31T03:19:29.664Z,1000.04
2017-12-31T03:20:30.021Z,1000.09
2017-12-31T03:21:30.067Z,1000.16
2017-12-31T03:22:30.075Z,1000.2
2017-12-31T03:23:30.179Z,1000.22
2017-12-31T03:24:30.265Z,1000.22
2017-12-31T03:25:30.382Z,1000.22
2017-12-31T03:26:30.442Z,1000.21
2017-12-31T03:27:30.468Z,1000.23
2017-12-31T03:28:30.516Z,1000.28
2017-12-31T03:29:30.541Z,1000.29
2017-12-31T03:30:30.648Z,1000.33
2017-12-31T03:31:30.810Z,1000.25
2017-12-31T03:32:31.080Z,1000.3
2017-12-31T03:33:31.191Z,1000.28
2017-12-31T03:34:31.204Z,1000.34
2017-12-31T03:35:31.396Z,1000.31
2017-12-31T03:36:31.657Z,1000.32
2017-12-31T03:37:32.115Z,1000.32
2017-12-31T03:38:32.115Z,1000.39
2017-12-31T03:39:32.590Z,1000.4
2017-12-31T03:40:32.742Z,1000.45
2017-12-31T03:41:33.185Z,1000.41
2017-12-31T03:42:32.780Z,1000.4
2017-12-31T03:43:32.790Z,1000.5
2017-12-31T03:44:32.818Z,1000.47
2017-12-31T03:45:32.917Z,1000.48
2017-12-31T03:46:33.071Z,1000.5
2017-12-31T03:47:33.095Z,1000.57
2017-12-31T03:48:33.170Z,1000.57
2017-12-31T03:49:33.143Z,1000.61
2017-12-31T03:50:33.624Z,1000.59
2017-12-31T03:51:33.203Z,1000.62
2017-12-31T03:52:33.250Z,1000.65
2017-12-31T03:53:33.271Z,1000.64
2017-12-31T03:54:33.370Z,1000.69
2017-12-31T03:55:33.500Z,1000.78
2017-12-31T03:56:33.617Z,1000.68
2017-12-31T03:57:34.131Z,1000.69
2017-12-31T03:58:34.000Z,1000.77
2017-12-31T03:59:34.128Z,1000.78
2017-12-31T04:00:34.237Z,1000.77
2017-12-31T04:01:34.610Z,1000.75
2017-12-31T04:02:34.662Z,1000.8
2017-12-31T04:03:34.641Z,1000.82
2017-12-31T04:04:34.666Z,1000.78
2017-12-31T04:05:35.384Z,1000.83
2017-12-31T04:06:35.138Z,1000.85
2017-12-31T04:07:34.745Z,1000.8
2017-12-31T04:08:34.791Z,1000.81
2017-12-31T04:09:34.889Z,1000.82
2017-12-31T04:10:35.006Z,1000.82
2017-12-31T04:11:35.319Z,1000.8
2017-12-31T04:12:35.442Z,1000.82
2017-12-31T04:13:35.337Z,1000.77
2017-12-31T04:14:35.406Z,1000.78
2017-12-31T04:15:35.492Z,1000.8
2017-12-31T04:16:35.519Z,1000.82
2017-12-31T04:17:35.808Z,1000.78
2017-12-31T04:18:35.802Z,1000.79
2017-12-31T04:19:36.142Z,1000.81
2017-12-31T04:20:35.994Z,1000.84
2017-12-31T04:21:36.027Z,1000.81
2017-12-31T04:22:36.045Z,1000.84
2017-12-31T04:23:36.075Z,1000.84
2017-12-31T04:24:36.333Z,1000.86
2017-12-31T04:25:36.941Z,1000.92
2017-12-31T04:26:36.763Z,1000.93
2017-12-31T04:27:36.806Z,1000.93
2017-12-31T04:28:36.977Z,1000.99
2017-12-31T04:29:37.447Z,1000.95
2017-12-31T04:30:37.485Z,1000.93
2017-12-31T04:31:37.496Z,1000.98
2017-12-31T04:32:37.508Z,1001.02
2017-12-31T04:33:37.533Z,1001.08
2017-12-31T04:34:37.566Z,1001.1
2017-12-31T04:35:38.020Z,1001.06
2017-12-31T04:36:37.858Z,1001.01
2017-12-31T04:37:37.855Z,1001.05
2017-12-31T04:38:37.863Z,1001.06
2017-12-31T04:39:37.892Z,1001.01
2017-12-31T04:40:37.918Z,1001.03
2017-12-31T04:41:37.952Z,1001
2017-12-31T04:42:37.989Z,1001.03
2017-12-31T04:43:37.994Z,1001.06
2017-12-31T04:44:38.021Z,1001.07
2017-12-31T04:45:38.174Z,1001.03
2017-12-31T04:46:38.186Z,1001.01
2017-12-31T04:47:38.316Z,1001.06
2017-12-31T04:48:38.268Z,1001.07
2017-12-31T04:49:38.283Z,1001.08
2017-12-31T04:50:38.310Z,1001.07
2017-12-31T04:51:38.330Z,1001.1
2017-12-31T04:52:38.368Z,1001.06
2017-12-31T04:53:38.363Z,1001.02
2017-12-31T04:54:38.578Z,1000.98
2017-12-31T04:55:38.721Z,1000.96
2017-12-31T04:56:39.073Z,1000.95
2017-12-31T04:57:39.220Z,1000.96
2017-12-31T04:58:39.241Z,1000.95
2017-12-31T04:59:39.430Z,1000.95
2017-12-31T05:01:54.375Z,1001.01
2017-12-31T05:02:54.792Z,1001.02
2017-12-31T05:03:55.263Z,1001.1
2017-12-31T05:04:55.420Z,1001.06
2017-12-31T05:05:55.255Z,1001.06
2017-12-31T05:06:55.300Z,1001.09
2017-12-31T05:07:55.326Z,1001.09
2017-12-31T05:08:55.518Z,1001.21
2017-12-31T05:09:55.664Z,1001.22
2017-12-31T05:10:55.663Z,1001.18
2017-12-31T05:11:56.065Z,1001.2
2017-12-31T05:12:56.489Z,1001.19
2017-12-31T05:13:56.703Z,1001.22
2017-12-31T05:14:56.730Z,1001.17
2017-12-31T05:15:56.736Z,1001.18
2017-12-31T05:16:56.789Z,1001.18
2017-12-31T05:17:56.958Z,1001.2
2017-12-31T05:18:57.111Z,1001.23
2017-12-31T05:19:57.267Z,1001.24
2017-12-31T05:20:57.324Z,1001.24
2017-12-31T05:21:57.375Z,1001.31
2017-12-31T05:22:57.439Z,1001.26
2017-12-31T05:23:57.478Z,1001.23
2017-12-31T05:24:57.498Z,1001.27
2017-12-31T05:25:57.529Z,1001.27
2017-12-31T05:26:58.001Z,1001.33
2017-12-31T05:27:58.225Z,1001.31
2017-12-31T05:28:58.232Z,1001.27
2017-12-31T05:29:58.269Z,1001.29
2017-12-31T05:30:58.296Z,1001.32
2017-12-31T05:31:58.319Z,1001.33
2017-12-31T05:32:58.635Z,1001.31
2017-12-31T05:33:59.088Z,1001.29
2017-12-31T05:34:59.108Z,1001.29
2017-12-31T05:35:59.337Z,1001.32
2017-12-31T05:36:59.798Z,1001.37
2017-12-31T05:37:59.938Z,1001.38
2017-12-31T05:39:00.215Z,1001.34
2017-12-31T05:40:00.016Z,1001.32
2017-12-31T05:41:00.015Z,1001.33
2017-12-31T05:42:00.183Z,1001.28
2017-12-31T05:43:00.369Z,1001.3
2017-12-31T05:44:00.078Z,1001.28
2017-12-31T05:45:00.116Z,1001.24
2017-12-31T05:46:00.147Z,1001.3
2017-12-31T05:47:00.339Z,1001.29
2017-12-31T05:48:00.518Z,1001.34
2017-12-31T05:49:00.724Z,1001.39
2017-12-31T05:50:01.230Z,1001.38
2017-12-31T05:51:01.454Z,1001.4
2017-12-31T05:52:01.621Z,1001.33
2017-12-31T05:53:01.755Z,1001.36
2017-12-31T05:54:01.912Z,1001.34
2017-12-31T05:55:02.128Z,1001.31
2017-12-31T05:56:02.619Z,1001.34
2017-12-31T05:57:02.637Z,1001.35
2017-12-31T05:58:03.070Z,1001.36
2017-12-31T05:59:03.089Z,1001.38
2017-12-31T06:00:03.154Z,1001.34
2017-12-31T06:01:03.157Z,1001.37
2017-12-31T06:02:03.223Z,1001.31
2017-12-31T06:03:03.183Z,1001.3
2017-12-31T06:04:03.250Z,1001.32
2017-12-31T06:05:03.766Z,1001.41
2017-12-31T06:06:04.014Z,1001.38
2017-12-31T06:07:04.186Z,1001.34
2017-12-31T06:08:05.118Z,1001.37
2017-12-31T06:09:05.330Z,1001.35
2017-12-31T06:10:05.012Z,1001.35
2017-12-31T06:11:04.969Z,1001.39
2017-12-31T06:12:05.006Z,1001.4
2017-12-31T06:13:05.041Z,1001.43
2017-12-31T06:14:05.174Z,1001.37
2017-12-31T06:15:05.284Z,1001.42
2017-12-31T06:16:05.222Z,1001.4
2017-12-31T06:17:05.618Z,1001.35
2017-12-31T06:18:05.631Z,1001.41
2017-12-31T06:19:06.159Z,1001.38
2017-12-31T06:20:06.348Z,1001.42
2017-12-31T06:21:06.377Z,1001.47
2017-12-31T06:22:06.794Z,1001.48
2017-12-31T06:23:06.819Z,1001.5
2017-12-31T06:24:06.846Z,1001.48
2017-12-31T06:25:06.856Z,1001.53
2017-12-31T06:26:07.070Z,1001.49
2017-12-31T06:27:07.510Z,1001.46
2017-12-31T06:28:07.857Z,1001.49
2017-12-31T06:29:07.886Z,1001.46
2017-12-31T06:30:07.928Z,1001.45
2017-12-31T06:31:08.332Z,1001.46
2017-12-31T06:32:08.344Z,1001.42
2017-12-31T06:33:08.365Z,1001.4
2017-12-31T06:34:08.838Z,1001.4
2017-12-31T06:35:08.720Z,1001.4
2017-12-31T06:36:08.761Z,1001.42
2017-12-31T06:37:08.765Z,1001.4
2017-12-31T06:38:08.820Z,1001.4
2017-12-31T06:39:08.817Z,1001.36
2017-12-31T06:40:08.961Z,1001.37
2017-12-31T06:41:09.164Z,1001.39
2017-12-31T06:42:09.278Z,1001.38
2017-12-31T06:43:09.361Z,1001.39
2017-12-31T06:44:09.333Z,1001.33
2017-12-31T06:45:09.381Z,1001.32
2017-12-31T06:46:09.451Z,1001.29
2017-12-31T06:47:09.767Z,1001.32
2017-12-31T06:48:10.229Z,1001.28
2017-12-31T06:49:10.248Z,1001.32
2017-12-31T06:50:10.288Z,1001.31
2017-12-31T06:51:10.435Z,1001.22
2017-12-31T06:52:10.468Z,1001.24
2017-12-31T06:53:10.601Z,1001.28
2017-12-31T06:54:10.628Z,1001.32
2017-12-31T06:55:10.792Z,1001.31
2017-12-31T06:56:11.068Z,1001.36
2017-12-31T06:57:11.005Z,1001.35
2017-12-31T06:58:11.018Z,1001.33
2017-12-31T06:59:11.169Z,1001.39
2017-12-31T07:00:16.250Z,1001.42
2017-12-31T07:01:16.424Z,1001.39
2017-12-31T07:02:16.433Z,1001.43
2017-12-31T07:03:16.458Z,1001.38
2017-12-31T07:04:16.732Z,1001.38
2017-12-31T07:05:16.746Z,1001.35
2017-12-31T07:06:16.785Z,1001.38
2017-12-31T07:07:16.920Z,1001.38
2017-12-31T07:08:17.039Z,1001.4
2017-12-31T07:09:17.102Z,1001.36
2017-12-31T07:10:17.137Z,1001.36
2017-12-31T07:11:17.326Z,1001.36
2017-12-31T07:12:17.146Z,1001.38
2017-12-31T07:13:17.566Z,1001.34
2017-12-31T07:14:17.353Z,1001.4
2017-12-31T07:15:17.379Z,1001.41
2017-12-31T07:16:17.419Z,1001.34
2017-12-31T07:17:17.558Z,1001.42
2017-12-31T07:18:17.524Z,1001.44
2017-12-31T07:19:17.558Z,1001.43
2017-12-31T07:20:18.231Z,1001.48
2017-12-31T07:21:18.325Z,1001.43
2017-12-31T07:22:18.259Z,1001.42
2017-12-31T07:23:18.463Z,1001.47
2017-12-31T07:24:18.499Z,1001.48
2017-12-31T07:25:18.453Z,1001.46
2017-12-31T07:26:18.950Z,1001.47
2017-12-31T07:27:18.788Z,1001.48
2017-12-31T07:28:18.438Z,1001.58
2017-12-31T07:29:18.424Z,1001.46
2017-12-31T07:30:18.469Z,1001.55
2017-12-31T07:31:18.498Z,1001.55
2017-12-31T07:32:18.715Z,1001.54
2017-12-31T07:33:18.627Z,1001.48
2017-12-31T07:34:18.571Z,1001.5
2017-12-31T07:35:18.754Z,1001.52
2017-12-31T07:36:18.641Z,1001.51
2017-12-31T07:37:18.636Z,1001.51
2017-12-31T07:38:18.658Z,1001.5
2017-12-31T07:39:18.891Z,1001.52
2017-12-31T07:40:18.791Z,1001.49
2017-12-31T07:41:18.778Z,1001.54
2017-12-31T07:42:19.009Z,1001.55
2017-12-31T07:43:19.036Z,1001.55
2017-12-31T07:44:19.324Z,1001.57
2017-12-31T07:45:19.361Z,1001.52
2017-12-31T07:46:19.884Z,1001.5
2017-12-31T07:47:19.964Z,1001.55
2017-12-31T07:48:20.043Z,1001.51
2017-12-31T07:49:20.253Z,1001.48
2017-12-31T07:50:20.319Z,1001.56
2017-12-31T07:51:20.324Z,1001.55
2017-12-31T07:52:20.674Z,1001.53
2017-12-31T07:53:21.296Z,1001.52
2017-12-31T07:54:21.259Z,1001.52
2017-12-31T07:55:21.628Z,1001.53
2017-12-31T07:56:21.642Z,1001.51
2017-12-31T07:57:21.706Z,1001.48
2017-12-31T07:58:21.714Z,1001.5
2017-12-31T07:59:21.729Z,1001.48
2017-12-31T08:00:21.795Z,1001.52
2017-12-31T08:01:21.792Z,1001.5
2017-12-31T08:02:21.826Z,1001.52
2017-12-31T08:03:21.970Z,1001.51
2017-12-31T08:04:21.987Z,1001.51
2017-12-31T08:05:22.954Z,1001.54
2017-12-31T08:06:22.949Z,1001.55
2017-12-31T08:07:22.947Z,1001.54
2017-12-31T08:08:23.090Z,1001.56
2017-12-31T08:09:23.556Z,1001.59
2017-12-31T08:10:23.732Z,1001.6
2017-12-31T08:11:24.134Z,1001.64
2017-12-31T08:12:24.185Z,1001.65
2017-12-31T08:13:24.231Z,1001.58
2017-12-31T08:14:24.256Z,1001.57
2017-12-31T08:15:24.267Z,1001.6
2017-12-31T08:16:24.972Z,1001.59
2017-12-31T08:17:24.869Z,1001.54
2017-12-31T08:18:24.911Z,1001.51
2017-12-31T08:19:25.001Z,1001.54
2017-12-31T08:20:25.440Z,1001.55
2017-12-31T08:21:25.484Z,1001.48
2017-12-31T08:22:25.571Z,1001.51
2017-12-31T08:23:26.016Z,1001.5
2017-12-31T08:24:26.069Z,1001.52
2017-12-31T08:25:26.931Z,1001.57
2017-12-31T08:26:26.941Z,1001.51
2017-12-31T08:27:26.990Z,1001.55
2017-12-31T08:28:27.430Z,1001.53
2017-12-31T08:29:27.471Z,1001.59
2017-12-31T08:30:27.480Z,1001.54
2017-12-31T08:31:27.532Z,1001.49
2017-12-31T08:32:27.976Z,1001.57
2017-12-31T08:33:28.292Z,1001.51
2017-12-31T08:34:27.914Z,1001.51
2017-12-31T08:35:28.185Z,1001.47
2017-12-31T08:36:28.533Z,1001.46
2017-12-31T08:37:28.652Z,1001.38
2017-12-31T08:38:28.835Z,1001.4
2017-12-31T08:39:28.861Z,1001.41
2017-12-31T08:40:29.265Z,1001.41
2017-12-31T08:41:29.285Z,1001.42
2017-12-31T08:42:29.572Z,1001.47
2017-12-31T08:43:29.634Z,1001.42
2017-12-31T08:44:29.624Z,1001.39
2017-12-31T08:45:29.887Z,1001.37
2017-12-31T08:46:30.040Z,1001.34
2017-12-31T08:47:30.172Z,1001.38
2017-12-31T08:48:30.217Z,1001.39
2017-12-31T08:49:30.286Z,1001.41
2017-12-31T08:50:30.263Z,1001.46
2017-12-31T08:51:30.689Z,1001.4
2017-12-31T08:52:30.704Z,1001.41
2017-12-31T08:53:30.851Z,1001.4
2017-12-31T08:54:30.756Z,1001.33
2017-12-31T08:55:30.920Z,1001.38
2017-12-31T08:56:30.955Z,1001.36
2017-12-31T08:57:30.961Z,1001.42
2017-12-31T08:58:31.025Z,1001.39
2017-12-31T08:59:31.039Z,1001.39
2017-12-31T09:00:31.531Z,1001.36
2017-12-31T09:01:31.534Z,1001.4
2017-12-31T09:02:31.788Z,1001.39
2017-12-31T09:03:31.821Z,1001.38
2017-12-31T09:04:31.838Z,1001.39
2017-12-31T09:05:31.912Z,1001.37
2017-12-31T09:06:31.917Z,1001.38
2017-12-31T09:07:31.978Z,1001.33
2017-12-31T09:08:32.000Z,1001.29
2017-12-31T09:09:32.004Z,1001.32
2017-12-31T09:10:32.040Z,1001.25
2017-12-31T09:11:32.083Z,1001.26
2017-12-31T09:12:32.148Z,1001.22
2017-12-31T09:13:32.369Z,1001.22
2017-12-31T09:14:32.588Z,1001.2
2017-12-31T09:15:32.749Z,1001.19
2017-12-31T09:16:32.757Z,1001.16
2017-12-31T09:17:33.171Z,1001.2
2017-12-31T09:18:33.301Z,1001.22
2017-12-31T09:19:33.475Z,1001.18
2017-12-31T09:20:33.983Z,1001.23
2017-12-31T09:21:34.071Z,1001.2
2017-12-31T09:22:34.052Z,1001.16
2017-12-31T09:23:34.072Z,1001.19
2017-12-31T09:24:34.512Z,1001.16
2017-12-31T09:25:34.977Z,1001.12
2017-12-31T09:26:34.977Z,1001.14
2017-12-31T09:27:35.008Z,1001.09
2017-12-31T09:28:35.028Z,1001.12
2017-12-31T09:29:35.060Z,1001.09
2017-12-31T09:30:35.609Z,1001.08
2017-12-31T09:31:35.343Z,1001.04
2017-12-31T09:32:35.763Z,1001.06
2017-12-31T09:33:36.005Z,1001.02
2017-12-31T09:34:36.452Z,1001.02
2017-12-31T09:35:36.583Z,1001
2017-12-31T09:36:36.596Z,1000.94
2017-12-31T09:37:37.090Z,1000.92
2017-12-31T09:38:37.064Z,1000.91
2017-12-31T09:39:37.150Z,1000.87
2017-12-31T09:40:37.232Z,1000.92
2017-12-31T09:41:37.384Z,1000.91
2017-12-31T09:42:37.425Z,1000.85
2017-12-31T09:43:37.886Z,1000.84
2017-12-31T09:44:38.320Z,1000.79
2017-12-31T09:45:38.613Z,1000.76
2017-12-31T09:46:39.060Z,1000.78
2017-12-31T09:47:39.069Z,1000.76
2017-12-31T09:48:39.234Z,1000.72
2017-12-31T09:49:39.361Z,1000.68
2017-12-31T09:50:39.394Z,1000.68
2017-12-31T09:51:39.422Z,1000.7
2017-12-31T09:52:39.695Z,1000.63
2017-12-31T09:53:39.715Z,1000.61
2017-12-31T09:54:39.832Z,1000.63
2017-12-31T09:55:39.993Z,1000.61
2017-12-31T09:56:40.305Z,1000.59
2017-12-31T09:57:40.807Z,1000.57
2017-12-31T09:58:40.837Z,1000.55
2017-12-31T09:59:40.852Z,1000.58
2017-12-31T10:00:40.969Z,1000.52
2017-12-31T10:01:40.913Z,1000.52
2017-12-31T10:02:41.010Z,1000.55
2017-12-31T10:03:40.945Z,1000.48
2017-12-31T10:04:41.030Z,1000.51
2017-12-31T10:05:41.107Z,1000.51
2017-12-31T10:06:41.103Z,1000.48
2017-12-31T10:07:41.251Z,1000.53
2017-12-31T10:08:41.441Z,1000.46
2017-12-31T10:09:41.457Z,1000.41
2017-12-31T10:10:42.468Z,1000.42
2017-12-31T10:11:41.723Z,1000.39
2017-12-31T10:12:41.828Z,1000.38
2017-12-31T10:13:42.213Z,1000.31
2017-12-31T10:14:42.234Z,1000.31
2017-12-31T10:15:42.361Z,1000.29
2017-12-31T10:16:42.767Z,1000.3
2017-12-31T10:17:42.914Z,1000.22
2017-12-31T10:18:42.911Z,1000.26
2017-12-31T10:19:43.254Z,1000.26
2017-12-31T10:20:43.634Z,1000.2
2017-12-31T10:21:43.690Z,1000.2
2017-12-31T10:22:44.119Z,1000.17
2017-12-31T10:23:44.143Z,1000.18
2017-12-31T10:24:44.192Z,1000.14
2017-12-31T10:25:44.565Z,1000.25
2017-12-31T10:26:44.688Z,1000.24
2017-12-31T10:27:45.123Z,1000.16
2017-12-31T10:28:45.139Z,1000.16
2017-12-31T10:29:45.501Z,1000.11
2017-12-31T10:30:45.690Z,1000.1
2017-12-31T10:31:45.920Z,1000.09
2017-12-31T10:32:45.717Z,1000.13
2017-12-31T10:33:45.739Z,1000.13
2017-12-31T10:34:45.955Z,1000.15
2017-12-31T10:35:45.993Z,1000.01
2017-12-31T10:36:46.021Z,1000.05
2017-12-31T10:37:46.428Z,1000.11
2017-12-31T10:38:46.619Z,1000.11
2017-12-31T10:39:47.023Z,1000.1
2017-12-31T10:40:47.046Z,1000.16
2017-12-31T10:41:47.058Z,1000.13
2017-12-31T10:42:47.475Z,1000.01
2017-12-31T10:43:47.116Z,999.94
2017-12-31T10:44:47.356Z,999.97
2017-12-31T10:45:47.570Z,999.86
2017-12-31T10:46:47.580Z,999.88
2017-12-31T10:47:47.876Z,999.93
2017-12-31T10:48:47.879Z,999.94
2017-12-31T10:49:48.270Z,999.97
2017-12-31T10:50:48.315Z,999.95
2017-12-31T10:51:48.362Z,999.97
2017-12-31T10:52:48.370Z,999.92
2017-12-31T10:53:48.388Z,999.9
2017-12-31T10:54:48.854Z,999.85
2017-12-31T10:55:48.455Z,999.91
2017-12-31T10:56:48.467Z,999.83
2017-12-31T10:57:49.363Z,999.79
2017-12-31T10:58:49.332Z,999.82
2017-12-31T10:59:49.357Z,999.8
2017-12-31T11:00:49.432Z,999.76
2017-12-31T11:01:49.436Z,999.79
2017-12-31T11:02:49.433Z,999.79
2017-12-31T11:03:49.469Z,999.73
2017-12-31T11:04:49.749Z,999.8
2017-12-31T11:05:50.092Z,999.73
2017-12-31T11:06:50.076Z,999.72
2017-12-31T11:07:50.546Z,999.76
2017-12-31T11:08:50.567Z,999.72
2017-12-31T11:09:50.574Z,999.7
2017-12-31T11:10:50.604Z,999.72
2017-12-31T11:11:51.173Z,999.7
2017-12-31T11:12:51.215Z,999.66
2017-12-31T11:13:51.214Z,999.66
2017-12-31T11:14:51.250Z,999.63
2017-12-31T11:15:51.265Z,999.73
2017-12-31T11:16:51.291Z,999.73
2017-12-31T11:17:51.444Z,999.7
2017-12-31T11:18:51.704Z,999.71
2017-12-31T11:19:52.188Z,999.71
2017-12-31T11:20:52.151Z,999.7
2017-12-31T11:21:52.164Z,999.63
2017-12-31T11:22:52.664Z,999.64
2017-12-31T11:23:52.701Z,999.69
2017-12-31T11:24:52.719Z,999.68
2017-12-31T11:25:52.866Z,999.64
2017-12-31T11:26:53.026Z,999.66
2017-12-31T11:27:53.323Z,999.69
2017-12-31T11:28:53.335Z,999.64
2017-12-31T11:29:53.357Z,999.67
2017-12-31T11:30:53.899Z,999.69
2017-12-31T11:31:53.442Z,999.65
2017-12-31T11:32:53.547Z,999.67
2017-12-31T11:33:53.880Z,999.67
2017-12-31T11:34:53.705Z,999.7
2017-12-31T11:35:53.723Z,999.68
2017-12-31T11:36:53.952Z,999.63
2017-12-31T11:37:53.765Z,999.6
2017-12-31T11:38:54.066Z,999.63
2017-12-31T11:39:54.128Z,999.67
2017-12-31T11:40:53.786Z,999.57
2017-12-31T11:41:54.015Z,999.62
2017-12-31T11:42:53.980Z,999.62
2017-12-31T11:43:54.088Z,999.59
2017-12-31T11:44:54.557Z,999.64
2017-12-31T11:45:54.583Z,999.65
2017-12-31T11:46:54.687Z,999.63
2017-12-31T11:47:54.678Z,999.57
2017-12-31T11:48:54.679Z,999.6
2017-12-31T11:49:54.722Z,999.57
2017-12-31T11:50:55.024Z,999.53
2017-12-31T11:51:55.055Z,999.57
2017-12-31T11:52:55.076Z,999.58
2017-12-31T11:53:55.087Z,999.59
2017-12-31T11:54:55.443Z,999.53
2017-12-31T11:55:55.476Z,999.59
2017-12-31T11:56:56.191Z,999.52
2017-12-31T11:57:56.450Z,999.52
2017-12-31T11:58:56.295Z,999.54
2017-12-31T11:59:56.147Z,999.48
2017-12-31T12:00:56.280Z,999.45
2017-12-31T12:01:56.288Z,999.42
2017-12-31T12:02:56.220Z,999.46
2017-12-31T12:03:56.840Z,999.36
2017-12-31T12:04:57.046Z,999.42
2017-12-31T12:05:57.197Z,999.41
2017-12-31T12:06:56.816Z,999.36
2017-12-31T12:07:56.774Z,999.43
2017-12-31T12:08:56.957Z,999.39
2017-12-31T12:09:57.228Z,999.33
2017-12-31T12:10:57.348Z,999.32
2017-12-31T12:11:57.696Z,999.36
2017-12-31T12:12:57.727Z,999.37
2017-12-31T12:13:57.747Z,999.35
2017-12-31T12:14:57.906Z,999.33
2017-12-31T12:15:57.798Z,999.33
2017-12-31T12:16:57.928Z,999.29
2017-12-31T12:17:58.032Z,999.3
2017-12-31T12:18:57.890Z,999.27
2017-12-31T12:19:58.251Z,999.25
2017-12-31T12:20:57.966Z,999.2
2017-12-31T12:21:57.977Z,999.21